Time;durP1;ratioP1;P1;durP2;ratioP2;P2;SDS_P1;SDS_P2;PMS_P1;PMS_P2;Temp;Humidity;BMP_temperature;BMP_pressure;BME280_temperature;BME280_humidity;BME280_pressure;Samples;Min_cycle;Max_cycle;Signal;HPM_P1;HPM_P2
2022/08/26 00:00:27;;;;;;;4.68;3.40;;;23.90;57.00;;;;;;5049656;28;20033;-58
2022/08/26 00:02:53;;;;;;;3.60;2.83;;;23.90;56.90;;;;;;5044436;28;21806;-61
2022/08/26 00:05:19;;;;;;;4.25;2.90;;;23.80;56.90;;;;;;5048155;28;20076;-59
2022/08/26 00:07:45;;;;;;;3.60;3.15;;;23.80;56.90;;;;;;5050802;28;20029;-58
2022/08/26 00:10:11;;;;;;;5.00;3.30;;;23.80;56.90;;;;;;5044265;28;20431;-61
2022/08/26 00:12:37;;;;;;;5.32;3.20;;;23.80;56.80;;;;;;5053134;28;20017;-61
2022/08/26 00:15:07;;;;;;;6.10;3.03;;;23.80;56.80;;;;;;5050519;28;21638;-57
2022/08/26 00:17:33;;;;;;;3.92;2.83;;;23.80;56.80;;;;;;5049507;28;20027;-61
2022/08/26 00:19:59;;;;;;;8.35;3.40;;;23.80;56.80;;;;;;5047959;28;20065;-60
2022/08/26 00:22:25;;;;;;;3.17;2.88;;;23.80;56.80;;;;;;5047687;28;20090;-59
2022/08/26 00:24:50;;;;;;;3.67;3.00;;;23.80;57.50;;;;;;5052048;28;20039;-58
2022/08/26 00:27:16;;;;;;;5.03;2.88;;;23.70;56.70;;;;;;5054430;28;20033;-59
2022/08/26 00:29:42;;;;;;;4.07;2.92;;;23.70;56.90;;;;;;5053073;28;20113;-59
2022/08/26 00:32:07;;;;;;;3.67;2.92;;;23.70;56.80;;;;;;5053833;28;20025;-58
2022/08/26 00:34:33;;;;;;;4.07;2.75;;;23.70;56.80;;;;;;5053322;28;20378;-58
2022/08/26 00:36:59;;;;;;;3.00;2.70;;;23.70;56.90;;;;;;5052806;28;20025;-58
2022/08/26 00:39:25;;;;;;;4.20;3.30;;;23.70;57.10;;;;;;5053604;28;20095;-60
2022/08/26 00:41:51;;;;;;;4.35;3.13;;;23.70;56.90;;;;;;5053561;28;20155;-57
2022/08/26 00:44:18;;;;;;;4.00;3.20;;;23.70;57.00;;;;;;5053432;28;20036;-59
2022/08/26 00:46:47;;;;;;;5.32;3.25;;;23.70;57.10;;;;;;5053221;28;20107;-59
2022/08/26 00:49:22;;;;;;;5.40;3.30;;;23.70;56.90;;;;;;5053199;28;20029;-56
2022/08/26 00:51:54;;;;;;;4.47;3.13;;;23.70;56.90;;;;;;5051195;28;20152;-59
2022/08/26 00:54:23;;;;;;;3.72;3.08;;;23.70;56.90;;;;;;5051736;28;20045;-57
2022/08/26 00:56:59;;;;;;;5.28;3.30;;;23.60;57.00;;;;;;5053229;28;20107;-58
2022/08/26 00:59:25;;;;;;;4.50;3.08;;;23.60;57.00;;;;;;5047974;28;20107;-58
2022/08/26 01:01:51;;;;;;;3.40;3.08;;;23.60;57.00;;;;;;5052059;28;20108;-57
2022/08/26 01:04:20;;;;;;;3.97;2.75;;;23.60;57.00;;;;;;5052750;28;20025;-57
2022/08/26 01:06:48;;;;;;;5.18;3.10;;;23.60;57.00;;;;;;5051626;28;20119;-56
2022/08/26 01:09:15;;;;;;;4.10;3.10;;;23.60;57.10;;;;;;5035071;28;20033;-57
2022/08/26 01:11:41;;;;;;;4.28;3.22;;;23.60;57.20;;;;;;5049522;28;20481;-60
2022/08/26 01:14:08;;;;;;;6.32;2.83;;;23.50;57.10;;;;;;5053716;28;20013;-58
2022/08/26 01:16:35;;;;;;;4.95;3.30;;;23.50;57.20;;;;;;5052139;28;20029;-57
2022/08/26 01:19:09;;;;;;;3.40;2.95;;;23.50;57.20;;;;;;5052928;28;20546;-57
2022/08/26 01:21:53;;;;;;;3.92;2.97;;;23.50;57.30;;;;;;5042196;28;20075;-57
2022/08/26 01:24:19;;;;;;;3.25;2.92;;;23.50;57.50;;;;;;5046296;28;20070;-58
2022/08/26 01:26:45;;;;;;;3.42;2.90;;;23.50;57.60;;;;;;5050052;28;20435;-57
2022/08/26 01:29:16;;;;;;;3.50;3.08;;;23.50;57.60;;;;;;5050005;28;20021;-57
2022/08/26 01:31:46;;;;;;;4.93;3.42;;;23.40;57.70;;;;;;5052197;28;20029;-56
2022/08/26 01:34:27;;;;;;;4.72;3.28;;;23.40;57.80;;;;;;5048472;28;20037;-59
2022/08/26 01:37:10;;;;;;;3.95;2.95;;;23.40;58.00;;;;;;5049525;28;20542;-58
2022/08/26 01:39:36;;;;;;;4.75;3.30;;;23.40;58.00;;;;;;5047759;28;20021;-57
2022/08/26 01:42:04;;;;;;;4.18;3.58;;;23.40;58.00;;;;;;5051383;28;20052;-56
2022/08/26 01:44:37;;;;;;;4.22;3.30;;;23.40;58.10;;;;;;5052008;28;20039;-57
2022/08/26 01:47:04;;;;;;;4.03;3.30;;;23.30;58.20;;;;;;5050961;28;20025;-56
2022/08/26 01:49:30;;;;;;;3.80;3.10;;;23.30;58.30;;;;;;5051256;28;20036;-58
2022/08/26 01:51:58;;;;;;;3.60;3.13;;;23.20;58.30;;;;;;5050988;28;20044;-58
2022/08/26 01:54:24;;;;;;;4.10;2.92;;;23.20;58.60;;;;;;5049435;28;20025;-57
2022/08/26 01:56:51;;;;;;;4.65;3.47;;;23.20;58.50;;;;;;5048313;28;20013;-58
2022/08/26 01:59:19;;;;;;;3.38;3.00;;;23.20;58.50;;;;;;5051441;28;20400;-58
2022/08/26 02:01:46;;;;;;;4.68;3.40;;;23.20;58.60;;;;;;5050621;28;20021;-57
2022/08/26 02:04:15;;;;;;;4.50;3.20;;;23.20;58.70;;;;;;5049197;28;20017;-56
2022/08/26 02:06:42;;;;;;;3.58;2.88;;;23.20;58.50;;;;;;5048459;28;20017;-57
2022/08/26 02:09:08;;;;;;;4.72;3.20;;;23.20;58.70;;;;;;5050332;28;20032;-57
2022/08/26 02:11:34;;;;;;;4.70;3.28;;;23.20;58.80;;;;;;5048738;28;20030;-56
2022/08/26 02:14:07;;;;;;;6.15;3.13;;;23.20;58.80;;;;;;5046262;28;20140;-58
2022/08/26 02:16:37;;;;;;;5.43;3.55;;;23.10;58.90;;;;;;5049847;28;20025;-59
2022/08/26 02:19:03;;;;;;;4.90;3.35;;;23.20;59.00;;;;;;5051473;28;20382;-57
2022/08/26 02:21:29;;;;;;;3.45;3.10;;;23.10;59.00;;;;;;5051309;28;20114;-56
2022/08/26 02:23:55;;;;;;;3.75;3.05;;;23.10;59.10;;;;;;5044921;28;20025;-59
2022/08/26 02:26:23;;;;;;;3.67;3.00;;;23.10;59.20;;;;;;5051307;28;20040;-58
2022/08/26 02:28:57;;;;;;;5.18;3.42;;;23.10;59.40;;;;;;5046830;28;20021;-57
2022/08/26 02:31:23;;;;;;;5.22;3.40;;;23.10;59.20;;;;;;5045679;28;20029;-57
2022/08/26 02:33:49;;;;;;;3.55;3.00;;;23.10;59.20;;;;;;5033178;28;20041;-58
2022/08/26 02:36:23;;;;;;;6.80;3.55;;;23.10;59.30;;;;;;5049955;28;20102;-57
2022/08/26 02:38:48;;;;;;;3.92;3.22;;;23.10;59.40;;;;;;5046601;28;20086;-57
2022/08/26 02:41:14;;;;;;;4.63;3.17;;;23.10;59.40;;;;;;5050426;28;20041;-60
2022/08/26 02:43:40;;;;;;;4.72;3.00;;;23.10;59.50;;;;;;5051434;28;20029;-58
2022/08/26 02:46:06;;;;;;;4.25;3.10;;;23.10;59.50;;;;;;5050050;28;20124;-58
2022/08/26 02:48:32;;;;;;;4.55;3.33;;;23.00;59.50;;;;;;5047683;28;20033;-58
2022/08/26 02:50:59;;;;;;;5.57;3.35;;;23.00;59.50;;;;;;5048425;28;20120;-58
2022/08/26 02:53:25;;;;;;;4.85;3.10;;;23.00;59.70;;;;;;5050271;28;20472;-58
2022/08/26 02:55:51;;;;;;;4.93;3.33;;;23.00;59.70;;;;;;5049650;28;20105;-57
2022/08/26 02:58:17;;;;;;;4.00;3.10;;;23.00;59.80;;;;;;5051323;28;20435;-58
2022/08/26 03:00:42;;;;;;;4.30;2.90;;;23.00;59.60;;;;;;5049715;28;20021;-57
2022/08/26 03:03:08;;;;;;;4.53;3.00;;;23.00;59.80;;;;;;5049867;28;20032;-57
2022/08/26 03:05:34;;;;;;;4.13;3.10;;;23.00;59.70;;;;;;5049619;28;20040;-57
2022/08/26 03:08:00;;;;;;;4.32;3.40;;;23.00;59.70;;;;;;5044230;28;20033;-57
2022/08/26 03:10:26;;;;;;;3.75;3.20;;;22.90;59.80;;;;;;5049999;28;20025;-57
2022/08/26 03:12:52;;;;;;;3.95;3.30;;;23.00;59.80;;;;;;5051210;28;20059;-57
2022/08/26 03:15:18;;;;;;;4.47;3.30;;;23.00;59.80;;;;;;5049169;28;20466;-57
2022/08/26 03:17:46;;;;;;;4.65;3.38;;;23.00;59.90;;;;;;5048187;28;20510;-59
2022/08/26 03:20:12;;;;;;;5.10;3.22;;;22.90;59.80;;;;;;5043114;28;20594;-58
2022/08/26 03:22:39;;;;;;;3.53;3.00;;;23.00;59.80;;;;;;5050402;28;20067;-57
2022/08/26 03:25:07;;;;;;;4.40;3.40;;;23.00;59.90;;;;;;5048031;28;20030;-58
2022/08/26 03:27:33;;;;;;;3.75;2.97;;;22.90;59.90;;;;;;5049217;28;20025;-58
2022/08/26 03:32:44;;;;;;;5.07;2.88;;;23.00;59.90;;;;;;5048541;28;20420;-57
2022/08/26 03:35:10;;;;;;;6.28;3.58;;;23.00;59.70;;;;;;5047587;28;20037;-59
2022/08/26 03:37:37;;;;;;;3.17;2.85;;;23.00;59.80;;;;;;5046502;28;20079;-58
2022/08/26 03:40:06;;;;;;;4.05;3.17;;;23.00;59.90;;;;;;5049813;28;20032;-57
2022/08/26 03:42:33;;;;;;;3.92;3.15;;;23.10;60.00;;;;;;5050877;28;20024;-58
2022/08/26 03:44:59;;;;;;;4.18;3.42;;;23.10;59.90;;;;;;5050004;28;20289;-58
2022/08/26 03:47:25;;;;;;;5.38;3.10;;;23.10;60.00;;;;;;5053599;28;20032;-57
2022/08/26 03:49:51;;;;;;;3.08;2.72;;;23.10;60.50;;;;;;5053708;28;20022;-58
2022/08/26 03:52:16;;;;;;;4.35;3.38;;;23.10;59.90;;;;;;5055202;28;20036;-57
2022/08/26 03:54:42;;;;;;;4.53;3.20;;;23.20;59.70;;;;;;5052519;28;20025;-57
2022/08/26 03:57:08;;;;;;;5.38;3.35;;;23.20;59.50;;;;;;5055498;28;20036;-57
2022/08/26 03:59:33;;;;;;;3.63;2.80;;;23.30;59.40;;;;;;5053708;28;20025;-56
2022/08/26 04:01:59;;;;;;;5.05;3.40;;;23.30;59.40;;;;;;5050674;28;20033;-58
2022/08/26 04:04:25;;;;;;;4.38;3.30;;;23.40;59.40;;;;;;5054956;28;20025;-57
2022/08/26 04:06:57;;;;;;;3.50;3.00;;;23.40;59.40;;;;;;5054936;28;20037;-60
2022/08/26 04:09:23;;;;;;;4.63;3.38;;;23.50;59.40;;;;;;5045696;28;20423;-58
2022/08/26 04:11:49;;;;;;;4.93;3.38;;;23.50;59.40;;;;;;5053457;28;20029;-58
2022/08/26 04:14:20;;;;;;;5.07;3.28;;;23.60;59.40;;;;;;5054923;28;20020;-57
2022/08/26 04:16:47;;;;;;;3.80;3.08;;;23.60;59.30;;;;;;5049388;28;20056;-57
2022/08/26 04:19:14;;;;;;;5.90;3.22;;;23.60;59.20;;;;;;5052464;28;20032;-56
2022/08/26 04:21:40;;;;;;;4.30;2.92;;;23.70;59.00;;;;;;5052775;28;20107;-57
2022/08/26 04:24:08;;;;;;;4.07;2.97;;;23.70;59.10;;;;;;5049696;28;20659;-57
2022/08/26 04:26:36;;;;;;;3.63;3.10;;;23.80;59.00;;;;;;5053581;28;20124;-57
2022/08/26 04:29:04;;;;;;;4.70;2.92;;;23.90;59.60;;;;;;5053307;28;20112;-58
2022/08/26 04:31:31;;;;;;;4.00;3.00;;;23.90;58.90;;;;;;5053536;28;20139;-57
2022/08/26 04:33:58;;;;;;;4.05;2.92;;;23.90;58.80;;;;;;5053448;28;20481;-57
2022/08/26 04:36:23;;;;;;;4.18;3.03;;;24.00;58.80;;;;;;5050868;28;20032;-58
2022/08/26 04:38:49;;;;;;;3.60;3.05;;;24.00;58.70;;;;;;5049183;28;20033;-60
2022/08/26 04:41:18;;;;;;;3.90;3.10;;;24.10;58.40;;;;;;5050488;28;20055;-61
2022/08/26 04:43:45;;;;;;;4.93;3.13;;;24.10;58.30;;;;;;5048426;28;20029;-57
2022/08/26 04:46:12;;;;;;;3.92;3.25;;;24.10;57.90;;;;;;5051529;28;20033;-61
2022/08/26 04:48:37;;;;;;;4.35;3.08;;;24.20;57.70;;;;;;5035995;28;20045;-57
2022/08/26 04:51:03;;;;;;;4.03;3.00;;;24.20;57.70;;;;;;5051840;28;20047;-59
2022/08/26 04:53:29;;;;;;;4.65;3.42;;;24.20;57.30;;;;;;5053867;28;20017;-60
2022/08/26 04:55:55;;;;;;;4.75;3.20;;;24.20;57.10;;;;;;5052886;28;20020;-57
2022/08/26 04:58:23;;;;;;;4.15;2.83;;;24.30;57.10;;;;;;5052543;28;20033;-58
2022/08/26 05:00:51;;;;;;;4.00;3.13;;;24.30;57.00;;;;;;5050121;28;20037;-60
2022/08/26 05:03:18;;;;;;;3.42;3.00;;;24.30;57.00;;;;;;5053503;28;20037;-59
2022/08/26 05:05:45;;;;;;;3.90;2.88;;;24.30;57.00;;;;;;5054173;28;20021;-58
2022/08/26 05:08:14;;;;;;;5.43;3.22;;;24.40;56.80;;;;;;5051854;28;20115;-58
2022/08/26 05:10:50;;;;;;;3.45;3.00;;;24.50;56.80;;;;;;5053060;28;20070;-58
2022/08/26 05:13:18;;;;;;;4.82;3.30;;;24.50;56.90;;;;;;5051985;28;20393;-58
2022/08/26 05:15:45;;;;;;;4.75;3.25;;;24.50;56.90;;;;;;5047911;28;20033;-57
2022/08/26 05:18:12;;;;;;;4.13;3.03;;;24.60;56.60;;;;;;5050964;28;20539;-59
2022/08/26 05:20:44;;;;;;;3.70;3.00;;;24.70;56.20;;;;;;5047419;28;20029;-58
2022/08/26 05:23:09;;;;;;;3.80;2.90;;;24.80;55.90;;;;;;5052850;28;20480;-60
2022/08/26 05:25:40;;;;;;;4.80;3.40;;;24.80;55.90;;;;;;5052481;28;20028;-57
2022/08/26 05:28:07;;;;;;;5.40;2.97;;;24.90;55.90;;;;;;5032819;28;20032;-57
2022/08/26 05:30:33;;;;;;;3.67;2.90;;;25.00;55.80;;;;;;5051820;28;20127;-58
2022/08/26 05:33:00;;;;;;;5.50;3.40;;;25.00;55.80;;;;;;5052404;28;20112;-57
2022/08/26 05:35:32;;;;;;;4.07;2.95;;;25.00;55.40;;;;;;5051358;28;20048;-58
2022/08/26 05:38:02;;;;;;;3.60;2.80;;;25.00;55.60;;;;;;5052855;28;20039;-59
2022/08/26 05:40:28;;;;;;;4.03;2.80;;;25.00;55.40;;;;;;5051856;28;20037;-58
2022/08/26 05:42:54;;;;;;;4.25;2.92;;;25.10;55.10;;;;;;5052084;28;20036;-58
2022/08/26 05:45:23;;;;;;;4.05;2.97;;;25.20;54.90;;;;;;5047599;28;20482;-58
2022/08/26 05:47:49;;;;;;;3.75;2.80;;;25.30;54.70;;;;;;5052254;28;20040;-57
2022/08/26 05:50:20;;;;;;;4.97;2.75;;;25.30;54.50;;;;;;5046815;28;20366;-57
2022/08/26 05:52:46;;;;;;;;;;;25.40;54.60;;;;;;5040149;28;20025;-59
2022/08/26 05:55:12;;;;;;;4.18;2.85;;;25.30;54.80;;;;;;5040381;28;19982;-57
2022/08/26 05:57:38;;;;;;;3.65;2.70;;;25.30;55.20;;;;;;5039114;28;20049;-58
2022/08/26 06:00:04;;;;;;;5.05;2.90;;;25.40;54.70;;;;;;5039865;28;20477;-60
2022/08/26 06:02:30;;;;;;;2.83;2.50;;;25.40;54.60;;;;;;5038438;28;20090;-59
2022/08/26 06:04:56;;;;;;;5.30;2.75;;;25.40;54.60;;;;;;5039361;28;20033;-59
2022/08/26 06:08:09;;;;;;;4.72;2.90;;;25.40;54.70;;;;;;5029629;28;20576;-58
2022/08/26 06:10:10;;;;;;;5.35;2.97;;;25.40;54.60;;;;;;5033890;28;20024;-58
2022/08/26 06:12:36;;;;;;;4.70;2.47;;;25.40;54.70;;;;;;5032559;28;20025;-60
2022/08/26 06:15:02;;;;;;;5.55;3.03;;;25.40;54.50;;;;;;5040001;28;20032;-57
2022/08/26 06:17:28;;;;;;;3.28;2.80;;;25.50;54.60;;;;;;5038467;28;20108;-57
2022/08/26 06:19:54;;;;;;;4.13;2.90;;;25.50;54.50;;;;;;5040263;28;20037;-57
2022/08/26 06:27:48;;;;;;;3.05;2.60;;;25.50;54.90;;;;;;5038938;28;20151;-58
2022/08/26 06:30:13;;;;;;;3.22;2.58;;;25.50;55.10;;;;;;5022257;28;20037;-58
2022/08/26 06:32:39;;;;;;;5.07;2.90;;;25.60;55.20;;;;;;5042332;28;20431;-59
2022/08/26 06:35:05;;;;;;;3.75;2.88;;;25.50;55.00;;;;;;5043962;28;20048;-59
2022/08/26 06:37:31;;;;;;;3.53;2.22;;;25.60;54.90;;;;;;5044259;28;20028;-60
2022/08/26 06:39:56;;;;;;;5.45;2.70;;;25.60;54.70;;;;;;5035163;28;20037;-60
2022/08/26 06:42:22;;;;;;;4.72;2.97;;;25.50;54.50;;;;;;5040593;28;20027;-60
2022/08/26 06:44:48;;;;;;;3.58;2.90;;;25.60;54.60;;;;;;5021137;28;20036;-58
2022/08/26 06:47:13;;;;;;;2.80;2.50;;;25.60;54.90;;;;;;5036086;28;20035;-59
2022/08/26 06:49:39;;;;;;;3.67;2.65;;;25.60;55.00;;;;;;5033142;28;20131;-60
2022/08/26 06:52:05;;;;;;;3.72;2.75;;;25.70;55.00;;;;;;5030023;28;20531;-60
2022/08/26 06:54:31;;;;;;;3.08;2.70;;;25.80;55.10;;;;;;5032037;28;20035;-62
2022/08/26 06:56:57;;;;;;;3.05;2.70;;;25.80;54.60;;;;;;5032282;28;20025;-61
2022/08/26 06:59:23;;;;;;;3.63;2.65;;;25.90;54.40;;;;;;5030719;28;20154;-61
2022/08/26 07:01:49;;;;;;;3.88;2.70;;;26.00;54.50;;;;;;5028817;28;20139;-61
2022/08/26 07:04:15;;;;;;;3.75;2.53;;;26.00;54.50;;;;;;5022768;28;20033;-61
2022/08/26 07:06:47;;;;;;;4.50;2.80;;;26.00;54.20;;;;;;5027224;28;20117;-61
2022/08/26 07:09:13;;;;;;;6.22;2.78;;;26.00;54.20;;;;;;5027783;28;20475;-62
2022/08/26 07:11:40;;;;;;;4.50;2.80;;;26.00;54.00;;;;;;5027565;28;20090;-59
2022/08/26 07:14:06;;;;;;;3.65;2.60;;;25.90;53.90;;;;;;5027533;28;20044;-59
2022/08/26 07:16:32;;;;;;;3.53;2.70;;;25.90;53.90;;;;;;5028389;28;20040;-59
2022/08/26 07:18:58;;;;;;;3.10;2.55;;;25.90;53.80;;;;;;5026195;28;20405;-58
2022/08/26 07:21:26;;;;;;;4.32;2.75;;;25.90;54.30;;;;;;5022415;28;20036;-60
2022/08/26 07:23:53;;;;;;;3.80;2.80;;;25.90;53.80;;;;;;5024702;28;20583;-59
2022/08/26 07:26:25;;;;;;;2.97;2.45;;;25.90;54.00;;;;;;5030074;28;20036;-59
2022/08/26 07:28:55;;;;;;;3.45;2.95;;;25.90;54.10;;;;;;5030221;28;20041;-62
2022/08/26 07:31:23;;;;;;;3.95;2.70;;;25.90;54.10;;;;;;5024252;28;20649;-60
2022/08/26 07:33:50;;;;;;;3.78;2.75;;;26.00;54.20;;;;;;5027372;28;20072;-61
2022/08/26 07:36:17;;;;;;;2.55;2.35;;;26.00;54.20;;;;;;5027366;28;20033;-60
2022/08/26 07:38:44;;;;;;;3.60;2.50;;;26.10;54.40;;;;;;5019058;28;20025;-61
2022/08/26 07:41:12;;;;;;;3.17;2.40;;;26.10;54.40;;;;;;5014200;28;20099;-60
2022/08/26 07:43:38;;;;;;;4.47;2.30;;;26.10;54.30;;;;;;5014658;28;20082;-58
2022/08/26 07:46:05;;;;;;;2.42;2.13;;;26.10;54.60;;;;;;5010972;28;20051;-61
2022/08/26 07:48:31;;;;;;;3.35;2.30;;;26.20;54.50;;;;;;5021264;28;20029;-62
2022/08/26 07:50:57;;;;;;;2.97;2.28;;;26.30;54.60;;;;;;5013493;28;20032;-62
2022/08/26 07:53:23;;;;;;;3.08;2.55;;;26.30;54.50;;;;;;5019121;28;20095;-60
2022/08/26 07:55:50;;;;;;;3.47;2.40;;;26.40;54.40;;;;;;5020034;28;20029;-57
2022/08/26 07:58:16;;;;;;;4.15;2.65;;;26.40;54.50;;;;;;5022646;28;20035;-60
2022/08/26 08:00:42;;;;;;;3.33;2.50;;;26.40;54.60;;;;;;5009722;28;20030;-59
2022/08/26 08:03:08;;;;;;;2.42;2.20;;;26.40;54.60;;;;;;5013046;28;20083;-61
2022/08/26 08:05:35;;;;;;;3.45;2.63;;;26.30;54.70;;;;;;5019657;28;20036;-60
2022/08/26 08:08:03;;;;;;;3.17;2.10;;;26.30;54.90;;;;;;5016317;28;20033;-60
2022/08/26 08:10:29;;;;;;;2.65;2.35;;;26.30;54.80;;;;;;5011287;28;20586;-60
2022/08/26 08:12:56;;;;;;;4.80;2.40;;;26.20;54.60;;;;;;5011326;28;20160;-59
2022/08/26 08:15:25;;;;;;;2.38;2.15;;;26.20;54.60;;;;;;5015494;28;20025;-60
2022/08/26 08:17:51;;;;;;;3.47;2.65;;;26.20;54.60;;;;;;5031964;28;20645;-59
2022/08/26 08:20:17;;;;;;;2.90;2.50;;;26.20;54.70;;;;;;5028319;28;20068;-60
2022/08/26 08:22:43;;;;;;;3.95;2.45;;;26.20;54.70;;;;;;5029838;28;20359;-59
2022/08/26 08:25:10;;;;;;;3.05;2.30;;;26.30;54.60;;;;;;5022086;28;20043;-59
2022/08/26 08:27:37;;;;;;;3.00;2.20;;;26.20;54.80;;;;;;5030082;28;20044;-59
2022/08/26 08:30:04;;;;;;;2.50;2.30;;;26.30;55.20;;;;;;5033183;28;20074;-58
2022/08/26 08:32:30;;;;;;;4.28;2.72;;;26.30;54.80;;;;;;5025595;28;20176;-60
2022/08/26 08:34:57;;;;;;;3.92;2.45;;;26.30;54.70;;;;;;5033199;28;20094;-61
2022/08/26 08:37:23;;;;;;;3.08;1.95;;;26.30;54.80;;;;;;5029265;28;20040;-59
2022/08/26 08:39:49;;;;;;;4.05;2.35;;;26.40;54.90;;;;;;5033263;28;20745;-59
2022/08/26 08:42:45;;;;;;;3.53;2.50;;;26.40;54.50;;;;;;5030782;28;20134;-59
2022/08/26 08:45:26;;;;;;;2.88;2.20;;;26.40;54.20;;;;;;5033554;28;20562;-58
2022/08/26 08:47:57;;;;;;;2.42;2.10;;;26.40;54.10;;;;;;5031988;28;22139;-60
2022/08/26 08:50:49;;;;;;;2.63;2.22;;;26.40;54.10;;;;;;5033734;28;20036;-60
2022/08/26 08:53:24;;;;;;;2.90;2.20;;;26.50;54.30;;;;;;5017313;28;20028;-60
2022/08/26 08:56:14;;;;;;;3.85;2.40;;;26.50;54.30;;;;;;5031242;28;20079;-58
2022/08/26 08:58:50;;;;;;;4.40;2.58;;;26.50;54.10;;;;;;5030059;28;20056;-62
2022/08/26 09:01:25;;;;;;;3.35;2.40;;;26.60;54.10;;;;;;5025775;28;20266;-59
2022/08/26 09:04:27;;;;;;;3.15;2.38;;;26.60;53.60;;;;;;5014328;28;20587;-58
2022/08/26 09:06:56;;;;;;;3.28;2.08;;;26.70;53.40;;;;;;5027304;28;20166;-59
2022/08/26 09:09:46;;;;;;;2.07;1.93;;;26.70;53.10;;;;;;5027016;28;20032;-60
2022/08/26 09:12:20;;;;;;;2.47;1.90;;;26.80;53.10;;;;;;5031630;28;20113;-60
2022/08/26 09:14:47;;;;;;;2.50;2.25;;;26.90;52.90;;;;;;5016416;28;20061;-59
2022/08/26 09:17:22;;;;;;;3.00;2.10;;;26.90;52.90;;;;;;5028605;28;20139;-60
2022/08/26 09:19:53;;;;;;;3.00;2.25;;;27.00;52.60;;;;;;5026387;28;21346;-60
2022/08/26 09:22:34;;;;;;;3.67;2.20;;;27.10;52.70;;;;;;5027031;28;20032;-59
2022/08/26 09:25:01;;;;;;;4.50;2.33;;;27.10;52.60;;;;;;5021404;28;20021;-59
2022/08/26 09:27:36;;;;;;;3.97;2.40;;;27.10;52.50;;;;;;5020363;28;20102;-61
2022/08/26 09:30:04;;;;;;;2.67;2.42;;;27.20;52.50;;;;;;5031153;28;20144;-60
2022/08/26 09:32:30;;;;;;;3.45;2.28;;;27.20;52.60;;;;;;5029919;28;20523;-61
2022/08/26 09:35:07;;;;;;;4.90;2.63;;;27.30;52.70;;;;;;5034556;28;20097;-59
2022/08/26 09:37:34;;;;;;;4.53;2.72;;;27.30;52.60;;;;;;5025280;28;20037;-61
2022/08/26 09:40:15;;;;;;;7.50;2.40;;;27.30;52.60;;;;;;5026932;28;20441;-63
2022/08/26 09:42:41;;;;;;;4.05;2.13;;;27.40;52.60;;;;;;5023560;28;20036;-61
2022/08/26 09:45:09;;;;;;;3.28;2.50;;;27.50;52.60;;;;;;5032425;28;20791;-60
2022/08/26 09:47:46;;;;;;;3.53;2.65;;;27.50;52.80;;;;;;5028077;28;20068;-61
2022/08/26 09:50:33;;;;;;;4.05;2.40;;;27.50;52.60;;;;;;5033174;28;20063;-62
2022/08/26 09:53:13;;;;;;;2.72;2.38;;;27.50;52.60;;;;;;5033525;28;20066;-61
2022/08/26 09:55:41;;;;;;;3.72;2.60;;;27.60;52.60;;;;;;5025081;28;20032;-62
2022/08/26 09:58:12;;;;;;;3.55;2.28;;;27.60;52.70;;;;;;5028788;28;20686;-61
2022/08/26 10:00:41;;;;;;;5.00;2.25;;;27.60;52.60;;;;;;5025164;28;20025;-60
2022/08/26 10:03:10;;;;;;;4.75;2.95;;;27.70;52.80;;;;;;5016582;28;20032;-60
2022/08/26 10:06:03;;;;;;;2.92;2.40;;;27.70;53.00;;;;;;5019735;28;20680;-61
2022/08/26 10:08:36;;;;;;;3.75;2.35;;;27.70;53.10;;;;;;5031729;28;20116;-59
2022/08/26 10:11:10;;;;;;;4.15;1.95;;;27.80;52.80;;;;;;5023965;28;20044;-61
2022/08/26 10:13:43;;;;;;;1.80;1.70;;;27.80;52.70;;;;;;5026743;28;20241;-59
2022/08/26 10:16:16;;;;;;;2.70;2.13;;;27.80;52.70;;;;;;5031899;28;21018;-61
2022/08/26 10:18:58;;;;;;;3.05;1.95;;;27.80;52.60;;;;;;5032331;28;20238;-60
2022/08/26 10:21:41;;;;;;;2.00;1.60;;;27.90;52.60;;;;;;5029332;28;20033;-61
2022/08/26 10:24:09;;;;;;;2.67;2.28;;;27.90;52.40;;;;;;5029989;28;20112;-62
2022/08/26 10:26:42;;;;;;;3.83;1.98;;;27.80;52.30;;;;;;5027400;28;20029;-62
2022/08/26 10:29:14;;;;;;;3.20;2.05;;;27.80;51.90;;;;;;5031697;28;20060;-60
2022/08/26 10:31:45;;;;;;;2.60;1.80;;;27.80;51.90;;;;;;5011772;28;20029;-59
2022/08/26 10:34:11;;;;;;;2.28;1.63;;;27.70;52.30;;;;;;5025552;28;20124;-61
2022/08/26 10:37:07;;;;;;;1.70;1.60;;;27.70;52.40;;;;;;5026867;28;20029;-63
2022/08/26 10:39:47;;;;;;;1.77;1.65;;;27.70;52.50;;;;;;5026855;28;20025;-63
2022/08/26 10:42:19;;;;;;;2.30;2.00;;;27.70;52.40;;;;;;5019398;28;20044;-58
2022/08/26 10:44:46;;;;;;;2.22;1.75;;;27.70;52.50;;;;;;5025274;28;20254;-60
2022/08/26 10:47:18;;;;;;;3.60;1.60;;;27.70;52.50;;;;;;5022581;28;20056;-59
2022/08/26 10:49:46;;;;;;;3.25;2.08;;;27.70;52.50;;;;;;5023159;28;20116;-61
2022/08/26 10:52:21;;;;;;;2.75;1.65;;;27.70;52.50;;;;;;5021762;28;20033;-60
2022/08/26 10:55:30;;;;;;;1.92;1.80;;;27.70;52.60;;;;;;5018518;28;20031;-60
2022/08/26 10:57:59;;;;;;;1.70;1.60;;;27.70;53.00;;;;;;5023565;28;20021;-63
2022/08/26 11:03:52;;;;;;;1.35;1.15;;;27.70;53.40;;;;;;5021607;28;20581;-60
2022/08/26 11:06:17;;;;;;;1.92;1.75;;;27.70;53.50;;;;;;5016990;28;20031;-58
2022/08/26 11:08:48;;;;;;;3.40;1.55;;;27.70;53.60;;;;;;5020955;28;20036;-62
2022/08/26 11:11:39;;;;;;;2.25;1.67;;;27.80;53.90;;;;;;5019212;28;20033;-60
2022/08/26 11:14:35;;;;;;;2.00;1.52;;;27.80;54.00;;;;;;5024178;28;20650;-61
2022/08/26 11:17:01;;;;;;;2.53;1.75;;;27.80;53.60;;;;;;4980179;28;20044;-62
2022/08/26 11:19:37;;;;;;;1.98;1.48;;;27.80;53.50;;;;;;5005153;28;20136;-63
2022/08/26 11:22:24;;;;;;;1.98;1.45;;;27.80;53.40;;;;;;5013873;28;20457;-62
2022/08/26 11:24:55;;;;;;;2.08;1.52;;;27.80;53.30;;;;;;5018574;28;20032;-58
2022/08/26 11:27:41;;;;;;;2.33;1.65;;;27.80;53.40;;;;;;5025489;28;20041;-60
2022/08/26 11:30:15;;;;;;;1.70;1.60;;;27.80;53.70;;;;;;4988984;28;20041;-60
2022/08/26 11:32:42;;;;;;;2.03;1.65;;;27.80;53.60;;;;;;5023619;28;20040;-60
2022/08/26 11:35:10;;;;;;;2.28;1.70;;;27.80;53.40;;;;;;5022510;28;20775;-58
2022/08/26 11:37:57;;;;;;;2.63;2.05;;;27.70;53.00;;;;;;5006258;28;20029;-60
2022/08/26 11:40:40;;;;;;;4.00;2.00;;;27.70;52.60;;;;;;5027949;28;20043;-59
2022/08/26 11:43:05;;;;;;;3.75;1.65;;;27.70;52.80;;;;;;5018889;28;20029;-62
2022/08/26 11:45:40;;;;;;;2.50;1.45;;;27.70;52.80;;;;;;5021423;28;20037;-57
2022/08/26 11:48:29;;;;;;;1.83;1.70;;;27.70;52.70;;;;;;5019008;28;20040;-61
2022/08/26 11:50:56;;;;;;;3.45;1.73;;;27.70;52.70;;;;;;5019416;28;20029;-60
2022/08/26 11:53:22;;;;;;;4.85;1.83;;;27.70;52.60;;;;;;5014696;28;20036;-60
2022/08/26 11:55:50;;;;;;;2.28;1.25;;;27.70;52.30;;;;;;5021171;28;20037;-59
2022/08/26 11:58:17;;;;;;;3.17;1.50;;;27.70;52.50;;;;;;5028070;28;20037;-58
2022/08/26 12:00:51;;;;;;;1.63;1.50;;;27.70;52.60;;;;;;5017710;28;20067;-60
2022/08/26 12:03:22;;;;;;;2.60;1.80;;;27.70;52.50;;;;;;5021455;28;20116;-59
2022/08/26 12:05:50;;;;;;;2.08;1.38;;;27.60;52.70;;;;;;5014885;28;20839;-59
2022/08/26 12:08:20;;;;;;;1.70;1.60;;;27.60;52.80;;;;;;5025864;28;20033;-59
2022/08/26 12:10:47;;;;;;;3.13;1.45;;;27.60;53.30;;;;;;5026385;28;20028;-59
2022/08/26 12:13:25;;;;;;;1.70;1.33;;;27.50;53.40;;;;;;5019874;28;20029;-61
2022/08/26 12:15:57;;;;;;;1.35;1.25;;;27.50;53.70;;;;;;5022437;28;20467;-60
2022/08/26 12:18:27;;;;;;;1.48;1.30;;;27.50;53.70;;;;;;5024351;28;21118;-56
2022/08/26 12:20:55;;;;;;;1.75;1.48;;;27.50;53.50;;;;;;5028395;28;20032;-58
2022/08/26 12:23:23;;;;;;;3.53;2.40;;;27.50;53.40;;;;;;5025094;28;20041;-57
2022/08/26 12:25:51;;;;;;;1.35;1.15;;;27.50;53.50;;;;;;5021625;28;20564;-58
2022/08/26 12:28:18;;;;;;;1.92;1.40;;;27.50;54.20;;;;;;5018958;28;20037;-60
2022/08/26 12:31:04;;;;;;;1.42;1.17;;;27.50;54.80;;;;;;5022143;28;20337;-60
2022/08/26 12:33:32;;;;;;;2.05;1.38;;;27.50;55.20;;;;;;5029224;28;20032;-60
2022/08/26 12:36:00;;;;;;;1.55;1.45;;;27.50;55.10;;;;;;5017809;28;20370;-58
2022/08/26 12:38:27;;;;;;;1.50;1.30;;;27.60;55.00;;;;;;5025542;28;20021;-59
2022/08/26 12:40:54;;;;;;;1.33;1.23;;;27.50;54.90;;;;;;5017600;28;20703;-60
2022/08/26 12:43:38;;;;;;;1.45;1.35;;;27.50;54.90;;;;;;5021460;28;20029;-61
2022/08/26 12:46:07;;;;;;;3.70;1.52;;;27.50;54.70;;;;;;5023968;28;20634;-59
2022/08/26 12:48:37;;;;;;;1.17;1.08;;;27.50;54.80;;;;;;5023305;28;20112;-60
2022/08/26 12:51:06;;;;;;;1.67;1.58;;;27.50;54.90;;;;;;5017959;28;20432;-61
2022/08/26 12:53:39;;;;;;;1.13;1.00;;;27.50;55.00;;;;;;5018689;28;20068;-60
2022/08/26 12:56:26;;;;;;;0.90;0.90;;;27.50;55.10;;;;;;5026400;28;20056;-58
2022/08/26 12:59:23;;;;;;;1.33;1.27;;;27.50;54.90;;;;;;5018797;28;20042;-61
2022/08/26 13:01:50;;;;;;;3.38;1.60;;;27.50;54.20;;;;;;5021691;28;20024;-60
2022/08/26 13:04:39;;;;;;;1.58;1.48;;;27.50;54.10;;;;;;5020530;28;20795;-58
2022/08/26 13:07:17;;;;;;;1.58;1.17;;;27.50;53.90;;;;;;5023528;28;20037;-59
2022/08/26 13:09:43;;;;;;;1.90;1.70;;;27.50;53.90;;;;;;5018068;28;20037;-60
2022/08/26 13:12:10;;;;;;;2.20;1.30;;;27.50;53.40;;;;;;5023332;28;23068;-60